Time;durP1;ratioP1;P1;durP2;ratioP2;P2;SDS_P1;SDS_P2;PMS_P1;PMS_P2;Temp;Humidity;BMP_temperature;BMP_pressure;BME280_temperature;BME280_humidity;BME280_pressure;Samples;Min_cycle;Max_cycle;Signal;HPM_P1;HPM_P2
2021/09/29 00:00:43;;;;;;;7.00;6.10;;;16.70;99.90;;;;;;5009039;28;20186;-71
2021/09/29 00:03:09;;;;;;;11.60;6.30;;;16.70;99.90;;;;;;5006664;28;20682;-71
2021/09/29 00:05:34;;;;;;;9.20;6.37;;;16.50;99.90;;;;;;5004848;28;20193;-69
2021/09/29 00:08:00;;;;;;;8.47;6.17;;;16.50;99.90;;;;;;5007919;28;20288;-70
2021/09/29 00:10:26;;;;;;;10.57;7.50;;;16.20;99.90;;;;;;5007627;28;20606;-70
2021/09/29 00:12:52;;;;;;;8.20;6.53;;;16.20;99.90;;;;;;5008100;28;20432;-70
2021/09/29 00:15:19;;;;;;;6.90;6.20;;;16.40;99.90;;;;;;5006107;28;20196;-70
2021/09/29 00:17:46;;;;;;;6.00;5.43;;;16.30;99.90;;;;;;5006199;28;20612;-71
2021/09/29 00:20:13;;;;;;;10.07;5.90;;;16.30;99.90;;;;;;5007584;28;20813;-69
2021/09/29 00:22:40;;;;;;;7.83;6.00;;;16.10;99.90;;;;;;5005948;28;20456;-69
2021/09/29 00:25:08;;;;;;;6.90;6.00;;;16.20;99.90;;;;;;5005436;28;20519;-70
2021/09/29 00:27:35;;;;;;;7.53;6.73;;;16.50;99.90;;;;;;5010353;28;20447;-70
2021/09/29 00:30:06;;;;;;;10.13;6.27;;;16.40;99.90;;;;;;5003862;28;20858;-71
2021/09/29 00:32:34;;;;;;;6.67;5.97;;;16.30;99.90;;;;;;5005746;28;20456;-71
2021/09/29 00:35:00;;;;;;;11.40;6.00;;;16.20;99.90;;;;;;5007070;28;20451;-71
2021/09/29 00:37:26;;;;;;;7.27;6.30;;;16.20;99.90;;;;;;5005336;28;20436;-71
2021/09/29 00:39:51;;;;;;;11.03;6.43;;;16.20;99.90;;;;;;5010035;28;20478;-70
2021/09/29 00:42:17;;;;;;;8.03;6.50;;;16.00;99.90;;;;;;5005404;28;20192;-70
2021/09/29 00:44:43;;;;;;;8.17;5.80;;;15.90;99.90;;;;;;5005144;28;20186;-71
2021/09/29 00:47:08;;;;;;;7.20;5.40;;;15.90;99.90;;;;;;5007684;28;20343;-70
2021/09/29 00:49:34;;;;;;;8.33;6.60;;;16.00;99.90;;;;;;5005705;28;20178;-71
2021/09/29 00:52:01;;;;;;;9.10;5.80;;;16.00;99.90;;;;;;4974076;28;20300;-72
2021/09/29 00:54:28;;;;;;;7.90;6.23;;;15.90;99.90;;;;;;5004788;28;20309;-71
2021/09/29 00:56:56;;;;;;;6.87;6.17;;;15.70;99.90;;;;;;5004078;28;20482;-71
2021/09/29 00:59:22;;;;;;;8.70;6.57;;;15.60;99.90;;;;;;5006189;28;20464;-71
2021/09/29 01:01:48;;;;;;;6.50;5.60;;;15.70;99.90;;;;;;5004095;28;20450;-68
2021/09/29 01:04:14;;;;;;;6.80;6.20;;;15.70;99.90;;;;;;5003689;28;20433;-69
2021/09/29 01:06:42;;;;;;;7.37;6.10;;;15.60;99.90;;;;;;5008753;28;20197;-70
2021/09/29 01:09:17;;;;;;;9.27;6.20;;;15.60;99.90;;;;;;5007182;28;20435;-71
2021/09/29 01:11:51;;;;;;;8.57;6.10;;;15.60;99.90;;;;;;5005683;28;20435;-71
2021/09/29 01:14:46;;;;;;;8.87;6.40;;;15.60;99.90;;;;;;5008001;28;20441;-71
2021/09/29 01:17:17;;;;;;;8.80;6.30;;;15.50;99.90;;;;;;4996965;28;20463;-71
2021/09/29 01:19:57;;;;;;;8.13;6.40;;;15.50;99.90;;;;;;5001323;28;20476;-70
2021/09/29 01:22:41;;;;;;;8.20;6.10;;;15.30;99.90;;;;;;5006381;28;20444;-71
2021/09/29 01:25:16;;;;;;;8.30;6.47;;;15.40;99.90;;;;;;5002156;28;20518;-70
2021/09/29 01:27:44;;;;;;;7.53;6.37;;;15.40;99.90;;;;;;5004471;28;20543;-70
2021/09/29 01:30:10;;;;;;;9.93;6.50;;;15.50;99.90;;;;;;5007379;28;20458;-71
2021/09/29 01:32:37;;;;;;;8.60;5.97;;;15.50;99.90;;;;;;5004649;28;20481;-71
2021/09/29 01:35:03;;;;;;;6.13;5.40;;;15.50;99.90;;;;;;4988041;28;20760;-71
2021/09/29 01:37:29;;;;;;;8.20;6.37;;;15.40;99.90;;;;;;5008526;28;20967;-70
2021/09/29 01:39:55;;;;;;;6.60;5.30;;;15.50;99.90;;;;;;5003164;28;20424;-69
2021/09/29 01:42:23;;;;;;;6.80;6.10;;;15.50;99.90;;;;;;5007059;28;20486;-67
2021/09/29 01:44:48;;;;;;;6.77;6.03;;;15.40;99.90;;;;;;5004214;28;20201;-71
2021/09/29 01:47:14;;;;;;;9.43;6.73;;;15.40;99.90;;;;;;5005044;28;20469;-69
2021/09/29 01:49:49;;;;;;;7.23;6.30;;;15.30;99.90;;;;;;5007297;28;20193;-70
2021/09/29 01:52:21;;;;;;;9.50;6.90;;;15.30;99.90;;;;;;5002663;28;20181;-70
2021/09/29 01:54:49;;;;;;;8.30;6.50;;;15.20;99.90;;;;;;5001285;28;20432;-70
2021/09/29 01:57:16;;;;;;;7.20;6.50;;;15.20;99.90;;;;;;5005598;28;20449;-71
2021/09/29 01:59:43;;;;;;;7.93;7.03;;;15.20;99.90;;;;;;5002724;28;20467;-71
2021/09/29 02:02:10;;;;;;;7.50;6.70;;;15.20;99.90;;;;;;5005059;28;20920;-71
2021/09/29 02:04:41;;;;;;;8.13;7.30;;;15.20;99.90;;;;;;5008105;28;20474;-71
2021/09/29 02:07:07;;;;;;;9.30;6.53;;;15.20;99.90;;;;;;5003430;28;20539;-70
2021/09/29 02:09:32;;;;;;;10.80;6.83;;;15.20;99.90;;;;;;5005255;28;20603;-70
2021/09/29 02:11:58;;;;;;;8.23;7.53;;;15.20;99.90;;;;;;4989092;28;20323;-71
2021/09/29 02:14:27;;;;;;;8.90;8.00;;;15.10;99.90;;;;;;5003190;28;20783;-70
2021/09/29 02:16:54;;;;;;;9.80;7.60;;;15.20;99.90;;;;;;5007985;28;20622;-70
2021/09/29 02:19:21;;;;;;;8.90;7.70;;;15.20;99.90;;;;;;5002341;28;20471;-70
2021/09/29 02:21:47;;;;;;;11.17;7.10;;;15.10;99.90;;;;;;5003740;28;20591;-70
2021/09/29 02:24:12;;;;;;;11.37;8.33;;;15.20;99.90;;;;;;5007382;28;20543;-70
2021/09/29 02:26:38;;;;;;;8.73;7.80;;;15.20;99.90;;;;;;5002365;28;20471;-72
2021/09/29 02:29:05;;;;;;;9.17;8.00;;;15.30;99.90;;;;;;5006872;28;20225;-72
2021/09/29 02:31:32;;;;;;;12.57;8.10;;;15.30;99.90;;;;;;4991254;28;20201;-70
2021/09/29 02:33:58;;;;;;;10.00;8.30;;;15.40;99.90;;;;;;5001536;28;20737;-70
2021/09/29 02:36:23;;;;;;;9.90;7.50;;;15.40;99.90;;;;;;5003479;28;20551;-71
2021/09/29 02:38:51;;;;;;;8.83;8.03;;;15.30;99.90;;;;;;5002882;28;20922;-71
2021/09/29 02:41:18;;;;;;;10.73;8.33;;;15.30;99.90;;;;;;5003913;28;20280;-69
2021/09/29 02:43:44;;;;;;;10.00;7.50;;;15.20;99.90;;;;;;5004627;28;20462;-70
2021/09/29 02:46:10;;;;;;;10.33;8.03;;;15.10;99.90;;;;;;5004649;28;20816;-70
2021/09/29 02:48:36;;;;;;;11.00;8.50;;;15.20;99.90;;;;;;5004091;28;20181;-70
2021/09/29 02:51:02;;;;;;;8.17;7.27;;;15.10;99.90;;;;;;5004404;28;20432;-71
2021/09/29 02:53:30;;;;;;;9.47;7.43;;;15.20;99.90;;;;;;5002521;28;20335;-71
2021/09/29 02:55:58;;;;;;;11.53;7.90;;;15.10;99.90;;;;;;5004827;28;20232;-70
2021/09/29 02:58:24;;;;;;;16.83;8.80;;;15.20;99.90;;;;;;5001292;28;20475;-70
2021/09/29 03:00:52;;;;;;;13.53;8.00;;;15.20;99.90;;;;;;5002605;28;20952;-71
2021/09/29 03:03:19;;;;;;;10.80;8.67;;;15.20;99.90;;;;;;5004556;28;20416;-70
2021/09/29 03:05:45;;;;;;;8.60;7.73;;;15.20;99.90;;;;;;5002464;28;20917;-70
2021/09/29 03:08:11;;;;;;;7.77;7.07;;;15.20;99.90;;;;;;5003989;28;20443;-71
2021/09/29 03:10:38;;;;;;;11.10;6.97;;;15.10;99.90;;;;;;4986445;28;20443;-70
2021/09/29 03:13:05;;;;;;;9.43;8.53;;;15.10;99.90;;;;;;5003800;28;20435;-70
2021/09/29 03:15:30;;;;;;;8.73;7.70;;;15.10;99.90;;;;;;5004199;28;20428;-71
2021/09/29 03:17:56;;;;;;;11.00;7.70;;;15.10;99.90;;;;;;5004666;28;20481;-70
2021/09/29 03:20:24;;;;;;;10.63;7.87;;;15.10;99.90;;;;;;5007220;28;20571;-70
2021/09/29 03:22:50;;;;;;;8.97;6.97;;;15.10;99.90;;;;;;5009613;28;20263;-70
2021/09/29 03:25:16;;;;;;;13.80;7.87;;;15.20;99.90;;;;;;5003922;28;20420;-71
2021/09/29 03:27:42;;;;;;;10.83;6.90;;;15.20;99.90;;;;;;5009418;28;20447;-71
2021/09/29 03:30:11;;;;;;;11.10;7.30;;;15.20;99.90;;;;;;5009444;28;20727;-70
2021/09/29 03:32:37;;;;;;;7.90;7.10;;;15.20;99.90;;;;;;5004870;28;20422;-70
2021/09/29 03:35:03;;;;;;;8.77;7.87;;;15.20;99.90;;;;;;5007658;28;20459;-70
2021/09/29 03:37:28;;;;;;;11.87;7.47;;;15.20;99.90;;;;;;5007047;28;20206;-70
2021/09/29 03:39:54;;;;;;;11.73;7.50;;;15.30;99.90;;;;;;5007418;28;20471;-70
2021/09/29 03:42:20;;;;;;;9.70;7.90;;;15.30;99.90;;;;;;5008349;28;20185;-70
2021/09/29 03:44:45;;;;;;;8.73;6.80;;;15.20;99.90;;;;;;5006063;28;20182;-70
2021/09/29 03:47:11;;;;;;;8.40;7.37;;;15.20;99.90;;;;;;5007947;28;20212;-70
2021/09/29 03:49:37;;;;;;;10.37;7.60;;;15.20;99.90;;;;;;4990578;28;20181;-70
2021/09/29 03:52:03;;;;;;;8.70;7.10;;;15.20;99.90;;;;;;5004571;28;20193;-71
2021/09/29 03:54:28;;;;;;;8.70;6.87;;;15.20;99.90;;;;;;5009646;28;20758;-70
2021/09/29 03:56:54;;;;;;;9.30;7.17;;;15.10;99.90;;;;;;5009766;28;20444;-71
2021/09/29 03:59:19;;;;;;;8.60;7.00;;;15.00;99.90;;;;;;5009852;28;20217;-71
2021/09/29 04:01:46;;;;;;;13.87;8.00;;;14.90;99.90;;;;;;5006015;28;20740;-70
2021/09/29 04:04:12;;;;;;;7.73;6.93;;;14.80;99.90;;;;;;5005824;28;20200;-70
2021/09/29 04:06:38;;;;;;;8.73;7.10;;;14.80;99.90;;;;;;5008321;28;20959;-71
2021/09/29 04:09:03;;;;;;;8.07;6.83;;;14.70;99.90;;;;;;5008422;28;20539;-70
2021/09/29 04:11:29;;;;;;;15.23;7.10;;;14.70;99.90;;;;;;5007531;28;20493;-70
2021/09/29 04:13:55;;;;;;;7.20;6.50;;;14.80;99.90;;;;;;5009889;28;20869;-70
2021/09/29 04:16:21;;;;;;;7.37;6.50;;;14.80;99.90;;;;;;5002800;28;21135;-70
2021/09/29 04:18:47;;;;;;;7.10;6.40;;;14.90;99.90;;;;;;5004964;28;21134;-70
2021/09/29 04:21:13;;;;;;;10.23;7.30;;;14.80;99.90;;;;;;5009222;28;20265;-70
2021/09/29 04:23:39;;;;;;;23.97;8.03;;;14.80;99.90;;;;;;5005996;28;20272;-72
2021/09/29 04:26:06;;;;;;;20.67;7.73;;;14.80;99.90;;;;;;5009150;28;20212;-71
2021/09/29 04:28:31;;;;;;;9.93;7.30;;;14.80;99.90;;;;;;5003110;28;20409;-70
2021/09/29 04:30:57;;;;;;;9.63;7.20;;;14.90;99.90;;;;;;5007982;28;20482;-71
2021/09/29 04:33:23;;;;;;;8.57;6.90;;;14.90;99.90;;;;;;4990180;28;20676;-70
2021/09/29 04:35:48;;;;;;;8.10;7.10;;;14.80;99.90;;;;;;5004698;28;20189;-71
2021/09/29 04:38:14;;;;;;;9.20;7.10;;;14.80;99.90;;;;;;5006548;28;20637;-70
2021/09/29 04:40:40;;;;;;;11.13;7.17;;;14.80;99.90;;;;;;5009474;28;20177;-70
2021/09/29 04:43:06;;;;;;;11.10;8.13;;;14.70;99.90;;;;;;5005101;28;20664;-70
2021/09/29 04:45:32;;;;;;;9.80;7.30;;;14.50;99.90;;;;;;5006377;28;20742;-71
2021/09/29 04:48:00;;;;;;;8.37;6.60;;;14.50;99.90;;;;;;4987369;28;20205;-70
2021/09/29 04:50:26;;;;;;;9.37;7.13;;;14.60;99.90;;;;;;5003917;28;20449;-70
2021/09/29 04:52:51;;;;;;;8.10;6.67;;;14.70;99.90;;;;;;5009536;28;20878;-70
2021/09/29 04:55:17;;;;;;;12.83;7.37;;;14.50;99.90;;;;;;5006571;28;20690;-70
2021/09/29 04:57:43;;;;;;;9.73;7.50;;;14.50;99.90;;;;;;5002868;28;20235;-69
2021/09/29 05:00:09;;;;;;;8.67;7.03;;;14.60;99.90;;;;;;5007881;28;20244;-69
2021/09/29 05:02:37;;;;;;;8.03;6.03;;;14.70;99.90;;;;;;5005322;28;20185;-70
2021/09/29 05:05:02;;;;;;;10.10;6.80;;;14.70;99.90;;;;;;5007356;28;20478;-70
2021/09/29 05:07:29;;;;;;;11.80;6.93;;;14.80;99.90;;;;;;5008109;28;20983;-72
2021/09/29 05:09:55;;;;;;;9.30;6.83;;;14.80;99.90;;;;;;5004908;28;20191;-71
2021/09/29 05:12:29;;;;;;;9.90;6.63;;;14.90;99.90;;;;;;4987402;28;20440;-71
2021/09/29 05:14:56;;;;;;;7.20;6.50;;;15.00;99.90;;;;;;5003866;28;20451;-70
2021/09/29 05:17:22;;;;;;;8.50;7.10;;;15.00;99.90;;;;;;5003927;28;20452;-71
2021/09/29 05:19:48;;;;;;;15.27;7.47;;;14.90;99.90;;;;;;5007993;28;20535;-70
2021/09/29 05:22:17;;;;;;;8.57;6.17;;;14.90;99.90;;;;;;5004491;28;20673;-70
2021/09/29 05:24:43;;;;;;;9.87;7.23;;;14.80;99.90;;;;;;5006229;28;20181;-70
2021/09/29 05:27:09;;;;;;;9.37;6.83;;;14.90;99.90;;;;;;5003080;28;20482;-70
2021/09/29 05:29:38;;;;;;;8.80;6.50;;;14.90;99.90;;;;;;5003135;28;20177;-70
2021/09/29 05:32:04;;;;;;;9.23;6.47;;;14.80;99.90;;;;;;5006282;28;20427;-71
2021/09/29 05:34:30;;;;;;;10.03;7.20;;;14.70;99.90;;;;;;5006410;28;20448;-71
2021/09/29 05:36:56;;;;;;;9.77;6.27;;;14.70;99.90;;;;;;5005583;28;20450;-71
2021/09/29 05:39:22;;;;;;;8.63;7.10;;;14.70;99.90;;;;;;5007067;28;20468;-71
2021/09/29 05:41:48;;;;;;;7.70;6.67;;;14.80;99.90;;;;;;5003760;28;20193;-72
2021/09/29 05:44:14;;;;;;;11.77;7.30;;;14.70;99.90;;;;;;5006335;28;20826;-71
2021/09/29 05:46:40;;;;;;;10.83;6.47;;;14.80;99.90;;;;;;5006443;28;20448;-71
2021/09/29 05:49:06;;;;;;;7.00;6.33;;;14.90;99.90;;;;;;5005286;28;20577;-71
2021/09/29 05:51:31;;;;;;;9.37;6.20;;;14.90;99.90;;;;;;5007212;28;20197;-71
2021/09/29 05:53:57;;;;;;;10.97;7.27;;;15.00;99.90;;;;;;4988292;28;20448;-71
2021/09/29 05:56:23;;;;;;;9.90;7.10;;;14.90;99.90;;;;;;5002783;28;20270;-71
2021/09/29 05:58:49;;;;;;;6.93;5.90;;;14.80;99.90;;;;;;5006219;28;20205;-71
2021/09/29 06:01:14;;;;;;;7.90;6.50;;;14.90;99.90;;;;;;5006551;28;20451;-71
2021/09/29 06:03:40;;;;;;;8.43;6.13;;;14.90;99.90;;;;;;5006830;28;20209;-71
2021/09/29 06:06:06;;;;;;;6.10;5.50;;;14.90;99.90;;;;;;5002698;28;20300;-71
2021/09/29 06:08:32;;;;;;;10.10;5.77;;;15.00;99.90;;;;;;5003210;28;20201;-72
2021/09/29 06:10:57;;;;;;;8.77;6.40;;;15.00;99.90;;;;;;5006621;28;20292;-72
2021/09/29 06:13:24;;;;;;;7.90;5.97;;;14.80;99.90;;;;;;5004502;28;20563;-71
2021/09/29 06:15:50;;;;;;;7.93;5.60;;;14.80;99.90;;;;;;5003227;28;20851;-70
2021/09/29 06:18:17;;;;;;;9.10;5.47;;;14.90;99.90;;;;;;5006020;28;20592;-72
2021/09/29 06:20:49;;;;;;;7.30;4.87;;;14.90;99.90;;;;;;5003868;28;20424;-71
2021/09/29 06:23:17;;;;;;;10.00;6.03;;;14.90;99.90;;;;;;5003459;28;20420;-71
2021/09/29 06:25:45;;;;;;;5.50;4.90;;;14.90;99.90;;;;;;5003724;28;20424;-71
2021/09/29 06:28:11;;;;;;;7.63;5.10;;;14.90;99.90;;;;;;5001530;28;20773;-71
2021/09/29 06:30:37;;;;;;;6.50;5.13;;;15.00;99.90;;;;;;5005632;28;20432;-71
2021/09/29 06:33:02;;;;;;;6.83;5.13;;;15.10;99.90;;;;;;5002328;28;20519;-71
2021/09/29 06:35:29;;;;;;;7.23;4.57;;;15.10;99.90;;;;;;5002524;28;20574;-71
2021/09/29 06:37:57;;;;;;;7.37;5.13;;;15.00;99.90;;;;;;5006521;28;20639;-71
2021/09/29 06:40:22;;;;;;;8.77;5.10;;;15.10;99.90;;;;;;5006147;28;20436;-71
2021/09/29 06:42:49;;;;;;;7.23;4.83;;;15.10;99.90;;;;;;5004677;28;20683;-71
2021/09/29 06:45:15;;;;;;;5.50;5.00;;;15.10;99.90;;;;;;5006525;28;20198;-70
2021/09/29 06:47:41;;;;;;;9.10;5.50;;;15.20;99.90;;;;;;5003769;28;20448;-70
2021/09/29 06:50:11;;;;;;;5.60;4.50;;;15.10;99.90;;;;;;5001774;28;20445;-70
2021/09/29 06:52:38;;;;;;;7.60;4.60;;;15.20;99.90;;;;;;5005639;28;20428;-71
2021/09/29 06:55:06;;;;;;;5.83;4.70;;;15.10;99.90;;;;;;5003259;28;20428;-71
2021/09/29 06:57:32;;;;;;;5.30;4.50;;;15.10;99.90;;;;;;5002310;28;20447;-69
2021/09/29 06:59:58;;;;;;;5.93;4.17;;;15.10;99.90;;;;;;5006014;28;20553;-70
2021/09/29 07:02:23;;;;;;;5.30;3.90;;;15.10;99.90;;;;;;5002627;28;20432;-71
2021/09/29 07:04:49;;;;;;;8.47;4.13;;;15.10;99.90;;;;;;5004940;28;20195;-71
2021/09/29 07:07:15;;;;;;;4.53;3.70;;;15.10;99.90;;;;;;5001480;28;20684;-70
2021/09/29 07:09:40;;;;;;;4.10;3.60;;;15.10;99.90;;;;;;5002449;28;20235;-70
2021/09/29 07:12:07;;;;;;;4.97;3.77;;;15.20;99.90;;;;;;5006855;28;20260;-72
2021/09/29 07:14:32;;;;;;;6.63;3.63;;;15.30;99.90;;;;;;5001868;28;20205;-72
2021/09/29 07:17:00;;;;;;;4.90;3.40;;;15.30;99.90;;;;;;5003744;28;20522;-70
2021/09/29 07:19:26;;;;;;;4.10;3.40;;;15.30;99.90;;;;;;5003666;28;20251;-71
2021/09/29 07:21:52;;;;;;;3.20;2.90;;;15.40;99.90;;;;;;5001162;28;20432;-70
2021/09/29 07:24:17;;;;;;;3.03;2.70;;;15.50;99.90;;;;;;5003374;28;21004;-71
2021/09/29 07:26:43;;;;;;;3.37;2.70;;;15.50;99.90;;;;;;5004821;28;20247;-70
2021/09/29 07:29:12;;;;;;;5.00;2.80;;;15.70;99.90;;;;;;5002829;28;20224;-71
2021/09/29 07:31:38;;;;;;;5.27;3.33;;;15.70;99.90;;;;;;5004609;28;20315;-71
2021/09/29 07:34:06;;;;;;;3.43;3.10;;;15.80;99.90;;;;;;5003453;28;20502;-71
2021/09/29 07:36:35;;;;;;;7.80;3.30;;;15.80;99.90;;;;;;5002659;28;20456;-71
2021/09/29 07:39:01;;;;;;;6.03;2.53;;;15.80;99.90;;;;;;5005633;28;20521;-72
2021/09/29 07:41:27;;;;;;;3.70;2.13;;;15.90;99.90;;;;;;5004428;28;20502;-70
2021/09/29 07:43:53;;;;;;;3.90;2.90;;;16.00;99.90;;;;;;5004685;28;20463;-70
2021/09/29 07:46:19;;;;;;;7.13;2.70;;;16.10;99.90;;;;;;5002879;28;20205;-69
2021/09/29 07:48:45;;;;;;;4.40;2.47;;;16.20;99.90;;;;;;5003676;28;20204;-71
2021/09/29 07:51:13;;;;;;;4.37;2.50;;;16.10;99.90;;;;;;5005607;28;20446;-71
2021/09/29 07:53:40;;;;;;;3.80;2.40;;;16.20;99.90;;;;;;5003860;28;20454;-71
2021/09/29 07:56:06;;;;;;;5.30;2.83;;;16.30;99.90;;;;;;5004062;28;20882;-70
2021/09/29 07:58:31;;;;;;;5.90;2.63;;;16.40;99.90;;;;;;5003846;28;20459;-70
2021/09/29 08:00:57;;;;;;;2.90;2.20;;;16.40;99.90;;;;;;5000903;28;20277;-71
2021/09/29 08:03:23;;;;;;;5.33;2.20;;;16.50;99.90;;;;;;5005795;28;20205;-71
2021/09/29 08:05:51;;;;;;;2.50;1.90;;;16.50;99.90;;;;;;5007861;28;20258;-70
2021/09/29 08:08:17;;;;;;;5.43;2.60;;;16.60;99.90;;;;;;5005592;28;20213;-70
2021/09/29 08:10:43;;;;;;;3.43;1.97;;;16.70;99.90;;;;;;5008705;28;20454;-70
2021/09/29 08:13:08;;;;;;;3.20;2.53;;;16.80;99.90;;;;;;5005289;28;20463;-71
2021/09/29 08:15:37;;;;;;;4.63;2.10;;;16.90;99.90;;;;;;5006354;28;20687;-71
2021/09/29 08:18:02;;;;;;;4.07;2.07;;;17.00;99.90;;;;;;5006954;28;20612;-70
2021/09/29 08:20:33;;;;;;;5.40;2.30;;;17.00;99.90;;;;;;5005993;28;20623;-72
2021/09/29 08:23:05;;;;;;;4.43;2.50;;;17.10;99.90;;;;;;5006726;28;20193;-71
2021/09/29 08:25:47;;;;;;;5.70;2.17;;;17.10;99.90;;;;;;5006515;28;20801;-71
2021/09/29 08:28:28;;;;;;;2.87;2.30;;;17.20;99.90;;;;;;5005259;28;20986;-71
2021/09/29 08:31:09;;;;;;;3.67;2.13;;;17.20;99.90;;;;;;5008027;28;20442;-71
2021/09/29 08:38:47;;;;;;;2.70;2.00;;;17.40;99.90;;;;;;5008984;28;20304;-69
2021/09/29 08:41:38;;;;;;;2.53;1.87;;;17.40;99.90;;;;;;4991070;28;20424;-69
2021/09/29 08:44:10;;;;;;;5.30;2.43;;;17.50;99.90;;;;;;5006477;28;20428;-71
2021/09/29 08:54:08;;;;;;;2.83;2.20;;;17.90;99.90;;;;;;5008110;28;20292;-70
2021/09/29 09:18:24;;;;;;;4.90;2.13;;;17.90;99.90;;;;;;5005141;28;20475;-70
2021/09/29 09:20:58;;;;;;;4.37;2.27;;;17.90;99.90;;;;;;5010761;28;20189;-71
2021/09/29 09:23:35;;;;;;;3.30;2.33;;;17.90;99.90;;;;;;5004918;28;20191;-71
2021/09/29 09:26:18;;;;;;;3.10;2.07;;;17.90;99.90;;;;;;5004021;28;21187;-71
2021/09/29 09:28:45;;;;;;;5.53;2.00;;;17.80;99.90;;;;;;5007191;28;20580;-71
2021/09/29 09:31:14;;;;;;;1.90;1.70;;;17.70;99.90;;;;;;5007869;28;20435;-71
2021/09/29 09:33:49;;;;;;;3.07;2.10;;;17.70;99.90;;;;;;5004127;28;20957;-71
2021/09/29 09:36:36;;;;;;;6.83;2.00;;;17.70;99.90;;;;;;5003326;28;20494;-71
2021/09/29 09:39:16;;;;;;;5.53;2.07;;;17.60;99.90;;;;;;5008734;28;20459;-71
2021/09/29 09:41:47;;;;;;;5.83;2.00;;;17.60;99.90;;;;;;5000874;28;20432;-70
2021/09/29 09:44:19;;;;;;;5.23;2.30;;;17.60;99.90;;;;;;5005698;28;20810;-70
2021/09/29 09:47:01;;;;;;;5.40;2.10;;;17.60;99.90;;;;;;5010133;28;20451;-70
2021/09/29 09:49:27;;;;;;;5.80;2.90;;;17.50;99.90;;;;;;5004198;28;20522;-70
2021/09/29 09:51:56;;;;;;;4.33;2.37;;;17.50;99.90;;;;;;5007848;28;20542;-71
2021/09/29 09:54:36;;;;;;;3.97;2.00;;;17.60;99.90;;;;;;5004665;28;20556;-71
2021/09/29 09:57:02;;;;;;;2.90;2.00;;;17.70;99.90;;;;;;5002673;28;20463;-71
2021/09/29 09:59:31;;;;;;;4.80;2.60;;;17.80;99.90;;;;;;5006405;28;20853;-69
2021/09/29 10:01:57;;;;;;;3.70;2.00;;;17.90;99.90;;;;;;5006322;28;20428;-70
2021/09/29 10:04:23;;;;;;;5.53;2.10;;;17.90;99.90;;;;;;5002688;28;20428;-71
2021/09/29 10:06:49;;;;;;;4.17;1.70;;;17.90;99.90;;;;;;5005581;28;20784;-71
2021/09/29 10:14:45;;;;;;;2.47;1.87;;;18.10;99.90;;;;;;5004421;28;20199;-70
2021/09/29 10:28:24;;;;;;;3.10;2.07;;;18.40;99.90;;;;;;5006045;28;20968;-72
2021/09/29 10:33:43;;;;;;;3.13;1.73;;;18.40;99.90;;;;;;5004320;28;21479;-71
2021/09/29 10:42:02;;;;;;;3.70;1.90;;;18.60;99.90;;;;;;5004337;28;20949;-70
2021/09/29 10:45:28;;;;;;;3.63;2.10;;;18.60;99.90;;;;;;5003785;28;20451;-70
2021/09/29 10:50:25;;;;;;;5.90;1.90;;;18.70;99.90;;;;;;5004628;28;20960;-70
2021/09/29 11:30:35;;;;;;;4.10;1.80;;;19.10;99.90;;;;;;5001179;28;20805;-71
2021/09/29 11:33:07;;;;;;;4.80;1.90;;;19.10;99.90;;;;;;5003077;28;20425;-71
2021/09/29 11:38:35;;;;;;;2.93;1.90;;;19.00;99.90;;;;;;5003393;28;20471;-71
2021/09/29 12:08:44;;;;;;;4.90;2.50;;;17.20;99.90;;;;;;5006855;28;20534;-70
2021/09/29 12:11:18;;;;;;;4.87;1.93;;;18.90;99.90;;;;;;5006663;28;20506;-71
2021/09/29 12:13:56;;;;;;;5.37;2.17;;;20.60;99.90;;;;;;5009067;28;20436;-71
2021/09/29 12:16:30;;;;;;;6.00;2.20;;;20.90;99.90;;;;;;5001726;28;20519;-69
2021/09/29 12:19:08;;;;;;;3.33;2.10;;;20.60;99.90;;;;;;5006289;28;20471;-71
2021/09/29 12:21:47;;;;;;;4.50;2.33;;;20.80;99.90;;;;;;5006216;28;20421;-71
2021/09/29 12:24:28;;;;;;;4.53;2.20;;;20.50;99.90;;;;;;5004679;28;20792;-71
2021/09/29 12:26:59;;;;;;;7.27;2.07;;;20.00;99.90;;;;;;5003945;28;20447;-69
2021/09/29 12:29:35;;;;;;;4.53;2.50;;;19.80;99.90;;;;;;5007638;28;20799;-71
2021/09/29 12:32:27;;;;;;;4.03;2.07;;;19.50;99.90;;;;;;5005850;28;20498;-70
2021/09/29 12:37:51;;;;;;;3.83;2.07;;;18.90;99.90;;;;;;4989921;28;20463;-70
2021/09/29 12:40:17;;;;;;;5.70;2.07;;;18.60;99.90;;;;;;5008300;28;20467;-71
2021/09/29 12:42:43;;;;;;;4.37;2.37;;;18.40;99.90;;;;;;5004695;28;20420;-70
2021/09/29 12:45:10;;;;;;;6.30;2.40;;;18.20;99.90;;;;;;5006349;28;20440;-70
2021/09/29 12:47:39;;;;;;;2.57;1.30;;;17.90;99.90;;;;;;5008734;28;20201;-70
2021/09/29 12:50:16;;;;;;;3.40;1.63;;;17.40;99.90;;;;;;5005181;28;20462;-70
2021/09/29 12:52:56;;;;;;;3.43;1.60;;;16.90;99.90;;;;;;5003532;28;20935;-71
2021/09/29 12:55:23;;;;;;;3.20;1.60;;;16.20;99.90;;;;;;5006463;28;20436;-69
2021/09/29 12:57:49;;;;;;;3.40;1.70;;;15.70;99.90;;;;;;5002678;28;20459;-70
2021/09/29 13:00:16;;;;;;;5.40;1.30;;;15.20;99.90;;;;;;5008457;28;20471;-69
2021/09/29 13:02:42;;;;;;;1.60;1.30;;;14.90;99.90;;;;;;5003680;28;20235;-70
2021/09/29 13:05:09;;;;;;;2.10;1.60;;;14.70;99.90;;;;;;4984501;28;20443;-70
2021/09/29 13:07:34;;;;;;;1.97;1.57;;;14.60;99.90;;;;;;5008420;28;20464;-69
2021/09/29 13:10:00;;;;;;;2.03;1.60;;;14.50;99.90;;;;;;5004607;28;20490;-67
2021/09/29 13:12:26;;;;;;;6.83;1.77;;;14.40;99.90;;;;;;5005374;28;20196;-70
2021/09/29 13:14:51;;;;;;;1.60;1.23;;;14.30;99.90;;;;;;5006302;28;20216;-71
2021/09/29 13:17:18;;;;;;;1.50;1.10;;;14.20;99.90;;;;;;5004962;28;20224;-69
2021/09/29 13:20:01;;;;;;;2.27;1.53;;;14.00;99.90;;;;;;5006255;28;20200;-71
2021/09/29 13:22:28;;;;;;;1.40;1.13;;;14.00;99.90;;;;;;5004703;28;20480;-70
2021/09/29 13:35:12;;;;;;;1.30;1.10;;;14.30;99.90;;;;;;5002100;28;20423;-70
2021/09/29 13:38:08;;;;;;;1.70;1.10;;;14.50;99.90;;;;;;5003900;28;20470;-71
2021/09/29 13:40:34;;;;;;;1.50;1.27;;;14.60;99.90;;;;;;5004237;28;20420;-70
2021/09/29 13:43:01;;;;;;;2.40;1.30;;;14.60;99.90;;;;;;5007716;28;20280;-70
2021/09/29 13:45:27;;;;;;;2.40;1.63;;;14.70;99.90;;;;;;4987616;28;20200;-71
2021/09/29 13:47:53;;;;;;;2.07;1.33;;;14.80;99.90;;;;;;5003193;28;20847;-70
2021/09/29 13:50:19;;;;;;;1.70;1.40;;;14.80;99.90;;;;;;5006056;28;20468;-71
2021/09/29 13:52:45;;;;;;;5.70;1.50;;;14.80;99.90;;;;;;5003854;28;20191;-70
2021/09/29 13:55:15;;;;;;;1.60;1.23;;;14.80;99.90;;;;;;5004074;28;20447;-70
2021/09/29 13:58:09;;;;;;;2.43;1.30;;;14.90;99.90;;;;;;5005232;28;20300;-71
2021/09/29 14:01:20;;;;;;;1.80;1.43;;;14.90;99.90;;;;;;5002807;28;20428;-69
2021/09/29 14:30:39;;;;;;;2.87;1.70;;;15.70;99.90;;;;;;5005369;28;20467;-71
2021/09/29 14:33:21;;;;;;;3.57;1.60;;;15.60;99.90;;;;;;5005940;28;20493;-71
2021/09/29 14:35:47;;;;;;;2.67;1.50;;;15.60;99.90;;;;;;5002967;28;20436;-70
2021/09/29 14:38:12;;;;;;;2.50;1.90;;;15.60;99.90;;;;;;5004318;28;20794;-71
2021/09/29 14:40:38;;;;;;;13.00;2.10;;;15.60;99.90;;;;;;5003927;28;20657;-70
2021/09/29 14:43:04;;;;;;;2.03;1.70;;;15.70;99.90;;;;;;5004361;28;20196;-71
2021/09/29 14:45:31;;;;;;;2.50;1.73;;;15.70;99.90;;;;;;4987818;28;20190;-72
2021/09/29 14:47:56;;;;;;;3.90;1.97;;;15.70;99.90;;;;;;5003277;28;20842;-70
2021/09/29 14:50:28;;;;;;;3.07;2.43;;;15.70;99.90;;;;;;5003399;28;20512;-70
2021/09/29 14:52:57;;;;;;;2.53;1.90;;;15.70;99.90;;;;;;4988833;28;20224;-71
2021/09/29 14:55:24;;;;;;;9.43;2.30;;;15.70;99.90;;;;;;5003013;28;20943;-72
2021/09/29 14:57:50;;;;;;;1.50;1.40;;;15.70;99.90;;;;;;5003960;28;20923;-71
2021/09/29 15:00:17;;;;;;;2.00;1.50;;;15.60;99.90;;;;;;5003855;28;20890;-69
2021/09/29 15:02:42;;;;;;;2.70;1.50;;;15.70;99.90;;;;;;5002902;28;20467;-71
2021/09/29 15:05:08;;;;;;;4.13;1.90;;;15.80;99.90;;;;;;5003822;28;20896;-71
2021/09/29 15:07:34;;;;;;;3.00;2.10;;;15.80;99.90;;;;;;5004487;28;20278;-70
2021/09/29 15:10:00;;;;;;;4.73;1.90;;;15.80;99.90;;;;;;5002362;28;20221;-71
2021/09/29 15:12:25;;;;;;;3.97;1.73;;;15.80;99.90;;;;;;5006273;28;20616;-71
2021/09/29 15:20:05;;;;;;;2.97;1.97;;;15.80;99.90;;;;;;5009341;28;20200;-71
2021/09/29 15:46:59;;;;;;;1.87;1.40;;;16.20;99.90;;;;;;5007181;28;20579;-71
2021/09/29 15:49:39;;;;;;;2.63;1.87;;;16.50;99.90;;;;;;5003614;28;21017;-71
2021/09/29 15:54:39;;;;;;;4.90;1.40;;;16.50;99.90;;;;;;5008106;28;20857;-69
2021/09/29 16:05:07;;;;;;;2.10;1.83;;;16.40;99.90;;;;;;5005065;28;20447;-71
2021/09/29 16:31:06;;;;;;;1.73;1.30;;;16.00;99.90;;;;;;5005942;28;20427;-70
2021/09/29 16:36:06;;;;;;;1.50;1.40;;;16.10;99.90;;;;;;5002922;28;20524;-71
2021/09/29 16:38:31;;;;;;;1.87;1.50;;;15.90;99.90;;;;;;5006382;28;20433;-71
2021/09/29 16:40:57;;;;;;;2.43;1.47;;;15.90;99.90;;;;;;5004452;28;20181;-71
2021/09/29 16:43:23;;;;;;;8.10;2.13;;;15.90;99.90;;;;;;5006025;28;20270;-70
2021/09/29 16:45:49;;;;;;;2.33;1.50;;;15.90;99.90;;;;;;5007878;28;20184;-71
2021/09/29 16:48:17;;;;;;;4.93;1.30;;;15.80;99.90;;;;;;5004022;28;20189;-71